sensor_id;sensor_type;location;lat;lon;timestamp;P1;durP1;ratioP1;P2;durP2;ratioP2
19816;SDS011;68323;49.394;8.434;2023-08-30T00:00:15;4.27;;;2.97;;
19816;SDS011;68323;49.394;8.434;2023-08-30T00:02:42;3.43;;;3.10;;
19816;SDS011;68323;49.394;8.434;2023-08-30T00:05:09;3.77;;;2.90;;
19816;SDS011;68323;49.394;8.434;2023-08-30T00:07:34;3.87;;;3.23;;
19816;SDS011;68323;49.394;8.434;2023-08-30T00:10:00;4.00;;;3.20;;
19816;SDS011;68323;49.394;8.434;2023-08-30T00:12:27;3.80;;;2.83;;
19816;SDS011;68323;49.394;8.434;2023-08-30T00:14:52;3.70;;;3.20;;
19816;SDS011;68323;49.394;8.434;2023-08-30T00:17:18;4.50;;;3.37;;
19816;SDS011;68323;49.394;8.434;2023-08-30T00:19:44;4.53;;;3.40;;
19816;SDS011;68323;49.394;8.434;2023-08-30T00:22:10;3.90;;;3.20;;
19816;SDS011;68323;49.394;8.434;2023-08-30T00:24:37;3.83;;;3.00;;
19816;SDS011;68323;49.394;8.434;2023-08-30T00:27:03;3.97;;;3.00;;
19816;SDS011;68323;49.394;8.434;2023-08-30T00:29:29;3.83;;;3.43;;
19816;SDS011;68323;49.394;8.434;2023-08-30T00:31:54;4.00;;;3.33;;
19816;SDS011;68323;49.394;8.434;2023-08-30T00:34:20;4.27;;;3.77;;
19816;SDS011;68323;49.394;8.434;2023-08-30T00:36:46;5.37;;;4.00;;
19816;SDS011;68323;49.394;8.434;2023-08-30T00:39:11;3.97;;;3.47;;
19816;SDS011;68323;49.394;8.434;2023-08-30T00:41:38;4.17;;;3.57;;
19816;SDS011;68323;49.394;8.434;2023-08-30T00:44:03;4.23;;;3.83;;
19816;SDS011;68323;49.394;8.434;2023-08-30T00:46:29;4.87;;;3.80;;
19816;SDS011;68323;49.394;8.434;2023-08-30T00:48:58;5.10;;;4.13;;
19816;SDS011;68323;49.394;8.434;2023-08-30T00:51:24;5.00;;;3.90;;
19816;SDS011;68323;49.394;8.434;2023-08-30T00:53:50;5.27;;;4.13;;
19816;SDS011;68323;49.394;8.434;2023-08-30T00:56:16;4.97;;;4.40;;
19816;SDS011;68323;49.394;8.434;2023-08-30T00:58:43;5.20;;;4.43;;
19816;SDS011;68323;49.394;8.434;2023-08-30T01:01:09;5.40;;;4.90;;
19816;SDS011;68323;49.394;8.434;2023-08-30T01:03:34;5.60;;;5.00;;
19816;SDS011;68323;49.394;8.434;2023-08-30T01:06:00;5.53;;;4.87;;
19816;SDS011;68323;49.394;8.434;2023-08-30T01:08:26;5.87;;;5.00;;
19816;SDS011;68323;49.394;8.434;2023-08-30T01:10:56;5.90;;;5.30;;
19816;SDS011;68323;49.394;8.434;2023-08-30T01:13:27;6.77;;;6.03;;
19816;SDS011;68323;49.394;8.434;2023-08-30T01:15:58;6.07;;;5.30;;
19816;SDS011;68323;49.394;8.434;2023-08-30T01:18:26;6.60;;;5.23;;
19816;SDS011;68323;49.394;8.434;2023-08-30T01:20:54;5.93;;;5.10;;
19816;SDS011;68323;49.394;8.434;2023-08-30T01:28:53;6.33;;;5.67;;
19816;SDS011;68323;49.394;8.434;2023-08-30T01:31:20;7.00;;;6.17;;
19816;SDS011;68323;49.394;8.434;2023-08-30T01:33:47;7.47;;;6.53;;
19816;SDS011;68323;49.394;8.434;2023-08-30T01:36:15;8.50;;;6.00;;
19816;SDS011;68323;49.394;8.434;2023-08-30T01:38:41;9.13;;;6.50;;
19816;SDS011;68323;49.394;8.434;2023-08-30T01:41:08;7.63;;;6.70;;
19816;SDS011;68323;49.394;8.434;2023-08-30T01:43:34;8.17;;;6.93;;
19816;SDS011;68323;49.394;8.434;2023-08-30T01:46:02;7.90;;;7.10;;
19816;SDS011;68323;49.394;8.434;2023-08-30T01:48:29;7.90;;;6.83;;
19816;SDS011;68323;49.394;8.434;2023-08-30T01:50:58;7.60;;;6.53;;
19816;SDS011;68323;49.394;8.434;2023-08-30T01:53:25;7.97;;;7.13;;
19816;SDS011;68323;49.394;8.434;2023-08-30T01:55:51;9.10;;;7.30;;
19816;SDS011;68323;49.394;8.434;2023-08-30T01:58:18;9.60;;;7.77;;
19816;SDS011;68323;49.394;8.434;2023-08-30T02:00:43;11.07;;;9.47;;
19816;SDS011;68323;49.394;8.434;2023-08-30T02:03:10;10.97;;;9.77;;
19816;SDS011;68323;49.394;8.434;2023-08-30T02:05:36;12.37;;;10.60;;
19816;SDS011;68323;49.394;8.434;2023-08-30T02:08:11;12.57;;;11.27;;
19816;SDS011;68323;49.394;8.434;2023-08-30T02:10:41;12.93;;;11.53;;
19816;SDS011;68323;49.394;8.434;2023-08-30T02:13:10;12.27;;;10.97;;
19816;SDS011;68323;49.394;8.434;2023-08-30T02:15:37;11.47;;;10.27;;
19816;SDS011;68323;49.394;8.434;2023-08-30T02:18:06;12.53;;;9.90;;
19816;SDS011;68323;49.394;8.434;2023-08-30T02:20:32;10.70;;;9.50;;
19816;SDS011;68323;49.394;8.434;2023-08-30T02:22:58;10.53;;;8.63;;
19816;SDS011;68323;49.394;8.434;2023-08-30T02:25:24;9.90;;;8.37;;
19816;SDS011;68323;49.394;8.434;2023-08-30T02:27:50;10.80;;;9.70;;
19816;SDS011;68323;49.394;8.434;2023-08-30T02:30:16;11.60;;;10.03;;
19816;SDS011;68323;49.394;8.434;2023-08-30T02:32:41;12.20;;;10.90;;
19816;SDS011;68323;49.394;8.434;2023-08-30T02:35:07;11.47;;;10.07;;
19816;SDS011;68323;49.394;8.434;2023-08-30T02:37:33;12.90;;;11.43;;
19816;SDS011;68323;49.394;8.434;2023-08-30T02:39:58;11.10;;;9.90;;
19816;SDS011;68323;49.394;8.434;2023-08-30T02:42:24;12.17;;;10.80;;
19816;SDS011;68323;49.394;8.434;2023-08-30T02:44:51;11.27;;;10.00;;
19816;SDS011;68323;49.394;8.434;2023-08-30T02:47:16;12.13;;;10.30;;
19816;SDS011;68323;49.394;8.434;2023-08-30T02:49:42;11.43;;;10.10;;
19816;SDS011;68323;49.394;8.434;2023-08-30T02:52:08;11.53;;;10.20;;
19816;SDS011;68323;49.394;8.434;2023-08-30T02:54:34;11.87;;;10.20;;
19816;SDS011;68323;49.394;8.434;2023-08-30T02:56:59;10.57;;;9.37;;
19816;SDS011;68323;49.394;8.434;2023-08-30T02:59:26;11.20;;;9.60;;
19816;SDS011;68323;49.394;8.434;2023-08-30T03:01:52;11.03;;;9.93;;
19816;SDS011;68323;49.394;8.434;2023-08-30T03:04:17;11.23;;;9.97;;
19816;SDS011;68323;49.394;8.434;2023-08-30T03:06:43;12.50;;;9.97;;
19816;SDS011;68323;49.394;8.434;2023-08-30T03:09:08;10.77;;;9.40;;
19816;SDS011;68323;49.394;8.434;2023-08-30T03:11:34;12.00;;;9.70;;
19816;SDS011;68323;49.394;8.434;2023-08-30T03:13:59;10.13;;;9.03;;
19816;SDS011;68323;49.394;8.434;2023-08-30T03:16:25;11.40;;;9.77;;
19816;SDS011;68323;49.394;8.434;2023-08-30T03:18:50;11.70;;;10.17;;
19816;SDS011;68323;49.394;8.434;2023-08-30T03:21:16;13.43;;;10.13;;
19816;SDS011;68323;49.394;8.434;2023-08-30T03:23:42;14.50;;;11.30;;
19816;SDS011;68323;49.394;8.434;2023-08-30T03:28:33;14.37;;;12.07;;
19816;SDS011;68323;49.394;8.434;2023-08-30T03:30:59;14.17;;;12.13;;
19816;SDS011;68323;49.394;8.434;2023-08-30T03:33:24;13.23;;;11.83;;
19816;SDS011;68323;49.394;8.434;2023-08-30T03:35:50;12.03;;;10.83;;
19816;SDS011;68323;49.394;8.434;2023-08-30T03:38:15;11.43;;;10.13;;
19816;SDS011;68323;49.394;8.434;2023-08-30T03:40:41;11.47;;;10.27;;
19816;SDS011;68323;49.394;8.434;2023-08-30T03:43:06;12.13;;;10.30;;
19816;SDS011;68323;49.394;8.434;2023-08-30T03:45:35;11.67;;;10.43;;
19816;SDS011;68323;49.394;8.434;2023-08-30T03:48:01;12.30;;;10.70;;
19816;SDS011;68323;49.394;8.434;2023-08-30T03:50:28;12.00;;;10.70;;
19816;SDS011;68323;49.394;8.434;2023-08-30T03:52:53;11.77;;;10.57;;
19816;SDS011;68323;49.394;8.434;2023-08-30T03:55:19;12.27;;;10.97;;
19816;SDS011;68323;49.394;8.434;2023-08-30T03:57:44;12.63;;;11.27;;
19816;SDS011;68323;49.394;8.434;2023-08-30T04:00:10;11.93;;;10.67;;
19816;SDS011;68323;49.394;8.434;2023-08-30T04:02:36;12.87;;;11.57;;
19816;SDS011;68323;49.394;8.434;2023-08-30T04:05:02;14.40;;;12.37;;
19816;SDS011;68323;49.394;8.434;2023-08-30T04:07:28;13.47;;;11.70;;
19816;SDS011;68323;49.394;8.434;2023-08-30T04:09:54;12.90;;;11.50;;
19816;SDS011;68323;49.394;8.434;2023-08-30T04:12:19;13.37;;;11.53;;
19816;SDS011;68323;49.394;8.434;2023-08-30T04:14:45;14.27;;;12.10;;
19816;SDS011;68323;49.394;8.434;2023-08-30T04:17:10;14.03;;;11.80;;
19816;SDS011;68323;49.394;8.434;2023-08-30T04:19:35;14.97;;;12.30;;
19816;SDS011;68323;49.394;8.434;2023-08-30T04:22:01;14.20;;;12.40;;
19816;SDS011;68323;49.394;8.434;2023-08-30T04:24:27;14.73;;;12.77;;
19816;SDS011;68323;49.394;8.434;2023-08-30T04:26:53;14.87;;;13.20;;
19816;SDS011;68323;49.394;8.434;2023-08-30T04:29:19;15.67;;;12.57;;
19816;SDS011;68323;49.394;8.434;2023-08-30T04:31:45;14.43;;;12.40;;
19816;SDS011;68323;49.394;8.434;2023-08-30T04:34:10;15.27;;;12.87;;
19816;SDS011;68323;49.394;8.434;2023-08-30T04:36:36;14.83;;;13.10;;
19816;SDS011;68323;49.394;8.434;2023-08-30T04:39:01;15.73;;;13.67;;
19816;SDS011;68323;49.394;8.434;2023-08-30T04:41:27;14.20;;;12.47;;
19816;SDS011;68323;49.394;8.434;2023-08-30T04:43:53;16.30;;;14.00;;
19816;SDS011;68323;49.394;8.434;2023-08-30T04:46:18;15.00;;;12.53;;
19816;SDS011;68323;49.394;8.434;2023-08-30T04:48:44;14.67;;;13.07;;
19816;SDS011;68323;49.394;8.434;2023-08-30T04:51:10;13.77;;;12.07;;
19816;SDS011;68323;49.394;8.434;2023-08-30T04:53:36;15.17;;;12.70;;
19816;SDS011;68323;49.394;8.434;2023-08-30T04:56:09;16.07;;;12.80;;
19816;SDS011;68323;49.394;8.434;2023-08-30T04:58:36;14.87;;;12.20;;
19816;SDS011;68323;49.394;8.434;2023-08-30T05:01:02;14.30;;;12.37;;
19816;SDS011;68323;49.394;8.434;2023-08-30T05:03:27;15.47;;;13.03;;
19816;SDS011;68323;49.394;8.434;2023-08-30T05:05:53;12.63;;;11.33;;
19816;SDS011;68323;49.394;8.434;2023-08-30T05:08:18;17.23;;;11.60;;
19816;SDS011;68323;49.394;8.434;2023-08-30T05:10:44;13.50;;;11.63;;
19816;SDS011;68323;49.394;8.434;2023-08-30T05:13:11;12.20;;;10.90;;
19816;SDS011;68323;49.394;8.434;2023-08-30T05:15:37;12.00;;;10.53;;
19816;SDS011;68323;49.394;8.434;2023-08-30T05:18:03;13.83;;;10.40;;
19816;SDS011;68323;49.394;8.434;2023-08-30T05:20:29;13.90;;;10.53;;
19816;SDS011;68323;49.394;8.434;2023-08-30T05:22:54;11.07;;;9.87;;
19816;SDS011;68323;49.394;8.434;2023-08-30T05:25:21;10.93;;;9.80;;
19816;SDS011;68323;49.394;8.434;2023-08-30T05:27:46;11.03;;;9.63;;
19816;SDS011;68323;49.394;8.434;2023-08-30T05:30:12;10.80;;;9.50;;
19816;SDS011;68323;49.394;8.434;2023-08-30T05:32:38;11.37;;;9.90;;
19816;SDS011;68323;49.394;8.434;2023-08-30T05:35:04;11.03;;;8.93;;
19816;SDS011;68323;49.394;8.434;2023-08-30T05:37:29;10.80;;;9.70;;
19816;SDS011;68323;49.394;8.434;2023-08-30T05:39:56;10.17;;;9.07;;
19816;SDS011;68323;49.394;8.434;2023-08-30T05:42:22;9.60;;;8.70;;
19816;SDS011;68323;49.394;8.434;2023-08-30T05:44:48;9.53;;;8.53;;
19816;SDS011;68323;49.394;8.434;2023-08-30T05:47:13;8.73;;;7.80;;
19816;SDS011;68323;49.394;8.434;2023-08-30T05:49:40;8.90;;;8.00;;
19816;SDS011;68323;49.394;8.434;2023-08-30T05:52:06;9.60;;;8.00;;
19816;SDS011;68323;49.394;8.434;2023-08-30T05:54:31;8.23;;;7.40;;
19816;SDS011;68323;49.394;8.434;2023-08-30T05:56:58;8.60;;;7.63;;
19816;SDS011;68323;49.394;8.434;2023-08-30T05:59:24;7.73;;;6.93;;
19816;SDS011;68323;49.394;8.434;2023-08-30T06:01:52;7.23;;;6.40;;
19816;SDS011;68323;49.394;8.434;2023-08-30T06:04:18;7.37;;;6.63;;
19816;SDS011;68323;49.394;8.434;2023-08-30T06:06:44;7.37;;;6.60;;
19816;SDS011;68323;49.394;8.434;2023-08-30T06:09:09;7.30;;;6.60;;
19816;SDS011;68323;49.394;8.434;2023-08-30T06:11:37;7.87;;;7.17;;
19816;SDS011;68323;49.394;8.434;2023-08-30T06:14:02;7.20;;;6.50;;
19816;SDS011;68323;49.394;8.434;2023-08-30T06:16:28;9.23;;;7.37;;
19816;SDS011;68323;49.394;8.434;2023-08-30T06:18:54;7.57;;;6.87;;
19816;SDS011;68323;49.394;8.434;2023-08-30T06:21:19;8.37;;;7.03;;
19816;SDS011;68323;49.394;8.434;2023-08-30T06:23:45;7.80;;;7.10;;
19816;SDS011;68323;49.394;8.434;2023-08-30T06:26:10;8.03;;;7.07;;
19816;SDS011;68323;49.394;8.434;2023-08-30T06:28:36;7.93;;;7.23;;
19816;SDS011;68323;49.394;8.434;2023-08-30T06:31:01;7.97;;;7.17;;
19816;SDS011;68323;49.394;8.434;2023-08-30T06:33:27;8.10;;;7.33;;
19816;SDS011;68323;49.394;8.434;2023-08-30T06:35:52;9.10;;;7.17;;
19816;SDS011;68323;49.394;8.434;2023-08-30T06:38:19;8.10;;;6.73;;
19816;SDS011;68323;49.394;8.434;2023-08-30T06:40:45;8.73;;;6.77;;
19816;SDS011;68323;49.394;8.434;2023-08-30T06:43:11;8.07;;;6.77;;
19816;SDS011;68323;49.394;8.434;2023-08-30T06:45:40;6.97;;;6.27;;
19816;SDS011;68323;49.394;8.434;2023-08-30T06:48:06;6.47;;;5.87;;
19816;SDS011;68323;49.394;8.434;2023-08-30T06:50:32;6.20;;;5.63;;
19816;SDS011;68323;49.394;8.434;2023-08-30T06:52:58;6.70;;;6.10;;
19816;SDS011;68323;49.394;8.434;2023-08-30T06:55:24;5.67;;;5.17;;
19816;SDS011;68323;49.394;8.434;2023-08-30T06:57:49;5.97;;;5.40;;
19816;SDS011;68323;49.394;8.434;2023-08-30T07:00:15;5.20;;;4.73;;
19816;SDS011;68323;49.394;8.434;2023-08-30T07:02:41;5.10;;;4.60;;
19816;SDS011;68323;49.394;8.434;2023-08-30T07:05:10;5.50;;;5.00;;
19816;SDS011;68323;49.394;8.434;2023-08-30T07:07:36;5.87;;;4.40;;
19816;SDS011;68323;49.394;8.434;2023-08-30T07:10:02;5.27;;;4.77;;
19816;SDS011;68323;49.394;8.434;2023-08-30T07:12:28;5.33;;;4.50;;
19816;SDS011;68323;49.394;8.434;2023-08-30T07:14:53;4.43;;;4.07;;
19816;SDS011;68323;49.394;8.434;2023-08-30T07:17:19;5.22;;;4.72;;
19816;SDS011;68323;49.394;8.434;2023-08-30T07:19:45;4.47;;;4.07;;
19816;SDS011;68323;49.394;8.434;2023-08-30T07:22:10;4.75;;;4.32;;
19816;SDS011;68323;49.394;8.434;2023-08-30T07:24:36;4.15;;;3.75;;
19816;SDS011;68323;49.394;8.434;2023-08-30T07:27:02;4.80;;;4.30;;
19816;SDS011;68323;49.394;8.434;2023-08-30T07:29:27;4.68;;;4.28;;
19816;SDS011;68323;49.394;8.434;2023-08-30T07:31:53;5.15;;;4.65;;
19816;SDS011;68323;49.394;8.434;2023-08-30T07:34:19;4.40;;;4.00;;
19816;SDS011;68323;49.394;8.434;2023-08-30T07:36:45;4.70;;;4.30;;
19816;SDS011;68323;49.394;8.434;2023-08-30T07:39:11;5.22;;;4.30;;
19816;SDS011;68323;49.394;8.434;2023-08-30T07:41:36;5.05;;;4.55;;
19816;SDS011;68323;49.394;8.434;2023-08-30T07:44:02;5.38;;;4.88;;
19816;SDS011;68323;49.394;8.434;2023-08-30T07:46:28;5.07;;;4.53;;
19816;SDS011;68323;49.394;8.434;2023-08-30T07:48:53;4.68;;;4.22;;
19816;SDS011;68323;49.394;8.434;2023-08-30T07:51:20;5.88;;;4.25;;
19816;SDS011;68323;49.394;8.434;2023-08-30T07:53:46;4.97;;;4.18;;
19816;SDS011;68323;49.394;8.434;2023-08-30T07:56:11;5.30;;;4.53;;
19816;SDS011;68323;49.394;8.434;2023-08-30T07:58:37;5.65;;;4.45;;
19816;SDS011;68323;49.394;8.434;2023-08-30T08:01:02;5.03;;;4.53;;
19816;SDS011;68323;49.394;8.434;2023-08-30T08:03:28;4.88;;;4.03;;
19816;SDS011;68323;49.394;8.434;2023-08-30T08:05:54;4.35;;;3.88;;
19816;SDS011;68323;49.394;8.434;2023-08-30T08:08:19;4.38;;;3.97;;
19816;SDS011;68323;49.394;8.434;2023-08-30T08:10:45;4.70;;;3.80;;
19816;SDS011;68323;49.394;8.434;2023-08-30T08:13:10;4.72;;;4.18;;
19816;SDS011;68323;49.394;8.434;2023-08-30T08:15:37;4.13;;;3.75;;
19816;SDS011;68323;49.394;8.434;2023-08-30T08:18:03;4.78;;;4.10;;
19816;SDS011;68323;49.394;8.434;2023-08-30T08:20:29;4.10;;;3.60;;
19816;SDS011;68323;49.394;8.434;2023-08-30T08:22:55;4.32;;;3.92;;
19816;SDS011;68323;49.394;8.434;2023-08-30T08:25:21;4.85;;;4.38;;
19816;SDS011;68323;49.394;8.434;2023-08-30T08:27:48;4.55;;;4.15;;
19816;SDS011;68323;49.394;8.434;2023-08-30T08:30:14;5.07;;;4.57;;
19816;SDS011;68323;49.394;8.434;2023-08-30T08:32:40;5.70;;;4.45;;
19816;SDS011;68323;49.394;8.434;2023-08-30T08:35:05;4.65;;;4.22;;
19816;SDS011;68323;49.394;8.434;2023-08-30T08:37:31;4.68;;;4.18;;
19816;SDS011;68323;49.394;8.434;2023-08-30T08:39:57;4.75;;;3.58;;
19816;SDS011;68323;49.394;8.434;2023-08-30T08:42:23;4.53;;;3.90;;
19816;SDS011;68323;49.394;8.434;2023-08-30T08:44:52;4.30;;;3.65;;
19816;SDS011;68323;49.394;8.434;2023-08-30T08:47:19;6.03;;;3.80;;
19816;SDS011;68323;49.394;8.434;2023-08-30T08:49:46;4.10;;;3.70;;
19816;SDS011;68323;49.394;8.434;2023-08-30T08:52:13;4.10;;;3.60;;
19816;SDS011;68323;49.394;8.434;2023-08-30T08:54:40;5.35;;;3.80;;
19816;SDS011;68323;49.394;8.434;2023-08-30T08:57:08;3.83;;;3.50;;
19816;SDS011;68323;49.394;8.434;2023-08-30T08:59:34;3.97;;;3.50;;
19816;SDS011;68323;49.394;8.434;2023-08-30T09:02:00;3.90;;;3.50;;
19816;SDS011;68323;49.394;8.434;2023-08-30T09:04:26;4.25;;;3.85;;
19816;SDS011;68323;49.394;8.434;2023-08-30T09:06:55;4.30;;;3.90;;
19816;SDS011;68323;49.394;8.434;2023-08-30T09:09:20;3.95;;;3.58;;
19816;SDS011;68323;49.394;8.434;2023-08-30T09:11:48;5.07;;;3.40;;
19816;SDS011;68323;49.394;8.434;2023-08-30T09:14:13;3.97;;;3.30;;
19816;SDS011;68323;49.394;8.434;2023-08-30T09:16:39;3.63;;;3.28;;
19816;SDS011;68323;49.394;8.434;2023-08-30T09:19:04;4.50;;;3.47;;
19816;SDS011;68323;49.394;8.434;2023-08-30T09:21:30;3.28;;;2.75;;
19816;SDS011;68323;49.394;8.434;2023-08-30T09:24:00;3.10;;;2.80;;
19816;SDS011;68323;49.394;8.434;2023-08-30T09:26:27;3.30;;;2.83;;
19816;SDS011;68323;49.394;8.434;2023-08-30T09:28:54;3.05;;;2.75;;
19816;SDS011;68323;49.394;8.434;2023-08-30T09:31:20;3.40;;;3.10;;
19816;SDS011;68323;49.394;8.434;2023-08-30T09:33:46;3.50;;;3.20;;
19816;SDS011;68323;49.394;8.434;2023-08-30T09:36:14;3.50;;;3.20;;
19816;SDS011;68323;49.394;8.434;2023-08-30T09:38:40;3.80;;;3.50;;
19816;SDS011;68323;49.394;8.434;2023-08-30T09:41:06;4.97;;;4.00;;
19816;SDS011;68323;49.394;8.434;2023-08-30T09:43:34;3.85;;;3.40;;
19816;SDS011;68323;49.394;8.434;2023-08-30T09:46:03;4.18;;;3.50;;
19816;SDS011;68323;49.394;8.434;2023-08-30T09:48:32;3.20;;;2.72;;
19816;SDS011;68323;49.394;8.434;2023-08-30T09:50:58;4.07;;;3.30;;
19816;SDS011;68323;49.394;8.434;2023-08-30T09:53:25;3.20;;;2.90;;
19816;SDS011;68323;49.394;8.434;2023-08-30T09:55:53;3.58;;;2.83;;
19816;SDS011;68323;49.394;8.434;2023-08-30T09:58:20;4.43;;;3.17;;
19816;SDS011;68323;49.394;8.434;2023-08-30T10:00:46;3.00;;;2.75;;
19816;SDS011;68323;49.394;8.434;2023-08-30T10:03:13;3.03;;;2.72;;
19816;SDS011;68323;49.394;8.434;2023-08-30T10:05:40;5.00;;;2.75;;
19816;SDS011;68323;49.394;8.434;2023-08-30T10:08:07;2.97;;;2.67;;
19816;SDS011;68323;49.394;8.434;2023-08-30T10:10:34;3.40;;;2.92;;
19816;SDS011;68323;49.394;8.434;2023-08-30T10:13:01;2.80;;;2.50;;
19816;SDS011;68323;49.394;8.434;2023-08-30T10:15:27;3.15;;;2.85;;
19816;SDS011;68323;49.394;8.434;2023-08-30T10:17:59;4.00;;;2.70;;
19816;SDS011;68323;49.394;8.434;2023-08-30T10:20:25;3.20;;;2.90;;
19816;SDS011;68323;49.394;8.434;2023-08-30T10:22:52;3.10;;;2.60;;
19816;SDS011;68323;49.394;8.434;2023-08-30T10:25:20;2.53;;;2.30;;
19816;SDS011;68323;49.394;8.434;2023-08-30T10:27:48;3.05;;;2.58;;
19816;SDS011;68323;49.394;8.434;2023-08-30T10:30:15;2.60;;;2.40;;
19816;SDS011;68323;49.394;8.434;2023-08-30T10:32:43;2.70;;;2.45;;
19816;SDS011;68323;49.394;8.434;2023-08-30T10:35:11;3.33;;;3.03;;
19816;SDS011;68323;49.394;8.434;2023-08-30T10:37:38;3.00;;;2.30;;
19816;SDS011;68323;49.394;8.434;2023-08-30T10:40:04;2.70;;;2.25;;
19816;SDS011;68323;49.394;8.434;2023-08-30T10:42:31;2.28;;;2.05;;
19816;SDS011;68323;49.394;8.434;2023-08-30T10:45:00;4.72;;;2.55;;
19816;SDS011;68323;49.394;8.434;2023-08-30T10:47:31;2.40;;;2.20;;
19816;SDS011;68323;49.394;8.434;2023-08-30T10:50:03;2.22;;;2.03;;
19816;SDS011;68323;49.394;8.434;2023-08-30T10:52:33;2.22;;;2.03;;
19816;SDS011;68323;49.394;8.434;2023-08-30T10:55:09;1.95;;;1.83;;
19816;SDS011;68323;49.394;8.434;2023-08-30T10:57:44;1.83;;;1.73;;
19816;SDS011;68323;49.394;8.434;2023-08-30T11:02:46;1.55;;;1.45;;
19816;SDS011;68323;49.394;8.434;2023-08-30T11:05:14;2.40;;;2.20;;
19816;SDS011;68323;49.394;8.434;2023-08-30T11:07:41;3.38;;;2.20;;
19816;SDS011;68323;49.394;8.434;2023-08-30T11:10:08;2.40;;;2.20;;
19816;SDS011;68323;49.394;8.434;2023-08-30T11:12:34;3.50;;;2.20;;
19816;SDS011;68323;49.394;8.434;2023-08-30T11:15:01;3.22;;;2.08;;
19816;SDS011;68323;49.394;8.434;2023-08-30T11:17:27;2.03;;;1.83;;
19816;SDS011;68323;49.394;8.434;2023-08-30T11:20:12;1.80;;;1.70;;
19816;SDS011;68323;49.394;8.434;2023-08-30T11:22:39;1.77;;;1.67;;
19816;SDS011;68323;49.394;8.434;2023-08-30T11:25:07;1.77;;;1.50;;
19816;SDS011;68323;49.394;8.434;2023-08-30T11:27:34;1.60;;;1.40;;
19816;SDS011;68323;49.394;8.434;2023-08-30T11:30:00;2.42;;;1.80;;
19816;SDS011;68323;49.394;8.434;2023-08-30T11:32:28;1.60;;;1.45;;
19816;SDS011;68323;49.394;8.434;2023-08-30T11:34:58;1.58;;;1.48;;
19816;SDS011;68323;49.394;8.434;2023-08-30T11:37:25;2.17;;;1.67;;
19816;SDS011;68323;49.394;8.434;2023-08-30T11:39:52;2.88;;;1.80;;
19816;SDS011;68323;49.394;8.434;2023-08-30T11:42:18;2.10;;;1.90;;
19816;SDS011;68323;49.394;8.434;2023-08-30T11:44:44;2.28;;;2.08;;
19816;SDS011;68323;49.394;8.434;2023-08-30T11:47:10;2.13;;;1.92;;
19816;SDS011;68323;49.394;8.434;2023-08-30T11:49:36;2.03;;;1.83;;
19816;SDS011;68323;49.394;8.434;2023-08-30T11:52:04;2.00;;;1.77;;
19816;SDS011;68323;49.394;8.434;2023-08-30T11:54:29;1.80;;;1.70;;
19816;SDS011;68323;49.394;8.434;2023-08-30T11:56:55;2.60;;;1.80;;
19816;SDS011;68323;49.394;8.434;2023-08-30T11:59:21;2.15;;;1.85;;
19816;SDS011;68323;49.394;8.434;2023-08-30T12:01:48;2.00;;;1.60;;
19816;SDS011;68323;49.394;8.434;2023-08-30T12:04:14;2.10;;;1.80;;
19816;SDS011;68323;49.394;8.434;2023-08-30T12:06:40;2.08;;;1.70;;
19816;SDS011;68323;49.394;8.434;2023-08-30T12:09:05;1.92;;;1.70;;
19816;SDS011;68323;49.394;8.434;2023-08-30T12:11:37;2.58;;;1.73;;
19816;SDS011;68323;49.394;8.434;2023-08-30T12:14:02;3.13;;;1.83;;
19816;SDS011;68323;49.394;8.434;2023-08-30T12:16:28;1.80;;;1.67;;
19816;SDS011;68323;49.394;8.434;2023-08-30T12:18:53;1.50;;;1.40;;
19816;SDS011;68323;49.394;8.434;2023-08-30T12:21:20;2.17;;;1.50;;
19816;SDS011;68323;49.394;8.434;2023-08-30T12:23:45;1.95;;;1.50;;
19816;SDS011;68323;49.394;8.434;2023-08-30T12:26:11;1.80;;;1.60;;
19816;SDS011;68323;49.394;8.434;2023-08-30T12:28:38;1.70;;;1.40;;
19816;SDS011;68323;49.394;8.434;2023-08-30T12:31:05;1.50;;;1.40;;
19816;SDS011;68323;49.394;8.434;2023-08-30T12:33:32;1.80;;;1.30;;
19816;SDS011;68323;49.394;8.434;2023-08-30T12:35:58;1.35;;;1.20;;
19816;SDS011;68323;49.394;8.434;2023-08-30T12:38:24;1.40;;;1.30;;
19816;SDS011;68323;49.394;8.434;2023-08-30T12:40:51;1.77;;;1.40;;
19816;SDS011;68323;49.394;8.434;2023-08-30T12:43:18;2.05;;;1.60;;
19816;SDS011;68323;49.394;8.434;2023-08-30T12:45:45;1.35;;;1.08;;
19816;SDS011;68323;49.394;8.434;2023-08-30T12:48:12;1.40;;;1.30;;
19816;SDS011;68323;49.394;8.434;2023-08-30T12:50:42;1.77;;;1.60;;
19816;SDS011;68323;49.394;8.434;2023-08-30T12:53:09;1.50;;;1.40;;
19816;SDS011;68323;49.394;8.434;2023-08-30T12:55:35;1.95;;;1.60;;
19816;SDS011;68323;49.394;8.434;2023-08-30T12:58:01;1.75;;;1.30;;
19816;SDS011;68323;49.394;8.434;2023-08-30T13:00:27;1.45;;;1.35;;
19816;SDS011;68323;49.394;8.434;2023-08-30T13:02:53;1.80;;;1.30;;
19816;SDS011;68323;49.394;8.434;2023-08-30T13:05:19;1.90;;;1.27;;
19816;SDS011;68323;49.394;8.434;2023-08-30T13:07:46;1.45;;;1.33;;
19816;SDS011;68323;49.394;8.434;2023-08-30T13:10:12;1.63;;;1.20;;
19816;SDS011;68323;49.394;8.434;2023-08-30T13:12:38;1.75;;;1.40;;
19816;SDS011;68323;49.394;8.434;2023-08-30T13:15:04;2.17;;;1.30;;
19816;SDS011;68323;49.394;8.434;2023-08-30T13:17:30;1.30;;;1.20;;
19816;SDS011;68323;49.394;8.434;2023-08-30T13:19:55;2.53;;;1.30;;
19816;SDS011;68323;49.394;8.434;2023-08-30T13:22:23;2.33;;;1.48;;
19816;SDS011;68323;49.394;8.434;2023-08-30T13:24:49;2.13;;;1.40;;
19816;SDS011;68323;49.394;8.434;2023-08-30T13:27:14;1.58;;;1.30;;
19816;SDS011;68323;49.394;8.434;2023-08-30T13:29:40;1.67;;;1.25;;
19816;SDS011;68323;49.394;8.434;2023-08-30T13:32:05;1.73;;;1.35;;
19816;SDS011;68323;49.394;8.434;2023-08-30T13:34:31;1.90;;;1.50;;
19816;SDS011;68323;49.394;8.434;2023-08-30T13:36:56;1.52;;;1.20;;
19816;SDS011;68323;49.394;8.434;2023-08-30T13:39:22;1.73;;;1.27;;
19816;SDS011;68323;49.394;8.434;2023-08-30T13:41:47;1.60;;;1.50;;
19816;SDS011;68323;49.394;8.434;2023-08-30T13:44:13;2.00;;;1.40;;
19816;SDS011;68323;49.394;8.434;2023-08-30T13:46:39;1.60;;;1.20;;
19816;SDS011;68323;49.394;8.434;2023-08-30T13:49:05;1.52;;;1.30;;
19816;SDS011;68323;49.394;8.434;2023-08-30T13:51:30;1.55;;;1.40;;
19816;SDS011;68323;49.394;8.434;2023-08-30T13:53:56;1.67;;;1.50;;
19816;SDS011;68323;49.394;8.434;2023-08-30T13:56:22;1.63;;;1.42;;
19816;SDS011;68323;49.394;8.434;2023-08-30T13:58:48;1.80;;;1.50;;
19816;SDS011;68323;49.394;8.434;2023-08-30T14:01:14;1.90;;;1.48;;
19816;SDS011;68323;49.394;8.434;2023-08-30T14:03:40;1.42;;;1.30;;
19816;SDS011;68323;49.394;8.434;2023-08-30T14:06:05;1.80;;;1.40;;
19816;SDS011;68323;49.394;8.434;2023-08-30T14:08:31;2.13;;;1.40;;
19816;SDS011;68323;49.394;8.434;2023-08-30T14:10:57;1.60;;;1.40;;
19816;SDS011;68323;49.394;8.434;2023-08-30T14:13:23;1.73;;;1.60;;
19816;SDS011;68323;49.394;8.434;2023-08-30T14:15:48;2.08;;;1.50;;
19816;SDS011;68323;49.394;8.434;2023-08-30T14:18:14;2.22;;;1.52;;
19816;SDS011;68323;49.394;8.434;2023-08-30T14:20:41;1.55;;;1.40;;
19816;SDS011;68323;49.394;8.434;2023-08-30T14:23:07;1.50;;;1.30;;
19816;SDS011;68323;49.394;8.434;2023-08-30T14:25:34;2.35;;;1.58;;
19816;SDS011;68323;49.394;8.434;2023-08-30T14:28:00;1.60;;;1.38;;
19816;SDS011;68323;49.394;8.434;2023-08-30T14:30:26;2.03;;;1.52;;
19816;SDS011;68323;49.394;8.434;2023-08-30T14:32:52;2.15;;;1.50;;
19816;SDS011;68323;49.394;8.434;2023-08-30T14:35:18;1.55;;;1.35;;
19816;SDS011;68323;49.394;8.434;2023-08-30T14:37:48;1.95;;;1.40;;
19816;SDS011;68323;49.394;8.434;2023-08-30T14:40:14;1.77;;;1.50;;
19816;SDS011;68323;49.394;8.434;2023-08-30T14:42:40;1.60;;;1.50;;
19816;SDS011;68323;49.394;8.434;2023-08-30T14:45:06;1.70;;;1.45;;
19816;SDS011;68323;49.394;8.434;2023-08-30T14:47:33;1.63;;;1.50;;